Time;durP1;ratioP1;P1;durP2;ratioP2;P2;SDS_P1;SDS_P2;PMS_P1;PMS_P2;Temp;Humidity;BMP_temperature;BMP_pressure;BME280_temperature;BME280_humidity;BME280_pressure;Samples;Min_cycle;Max_cycle;Signal;HPM_P1;HPM_P2
2022/01/12 00:01:50;;;;;;;13.38;8.65;;;;;;;-5.10;72.25;101591.47;1735601;82;21200;-54
2022/01/12 00:04:55;;;;;;;14.40;8.03;;;;;;;-5.04;72.11;101585.94;1773238;80;21387;-55
2022/01/12 00:08:00;;;;;;;15.23;8.60;;;;;;;-4.96;71.95;101589.23;1735237;82;21223;-56
2022/01/12 00:11:07;;;;;;;14.03;8.10;;;;;;;-4.90;71.66;101582.84;1772804;80;21931;-55
2022/01/12 00:14:14;;;;;;;13.28;8.40;;;;;;;-4.93;71.04;101588.28;1735531;82;21267;-56
2022/01/12 00:17:19;;;;;;;11.50;7.40;;;;;;;-5.01;70.77;101584.98;1772423;80;21201;-55
2022/01/12 00:20:25;;;;;;;12.82;7.95;;;;;;;-5.01;70.75;101585.84;1735659;82;21177;-54
2022/01/12 00:23:33;;;;;;;14.33;8.45;;;;;;;-4.95;70.67;101588.78;1772559;80;21339;-56
2022/01/12 00:33:06;;;;;;;11.97;6.95;;;;;;;-4.92;70.61;101583.34;1770676;79;21960;-56
2022/01/12 00:33:12;;;;;;;12.03;7.10;;;;;;;-4.84;69.71;101571.95;1771152;80;21276;-55
2022/01/12 00:36:22;;;;;;;12.85;8.03;;;;;;;-4.98;69.32;101584.88;1770600;80;21749;-56
2022/01/12 00:39:30;;;;;;;13.48;7.95;;;;;;;-5.05;69.41;101578.86;1735304;82;21224;-56
2022/01/12 00:42:37;;;;;;;12.65;7.10;;;;;;;-5.10;69.49;101585.25;1771815;80;21372;-56
2022/01/12 00:45:45;;;;;;;11.63;6.80;;;;;;;-5.12;69.55;101595.98;1770954;80;21716;-56
2022/01/12 00:48:50;;;;;;;12.25;7.95;;;;;;;-5.16;69.61;101598.80;1735358;82;21212;-55
2022/01/12 00:51:57;;;;;;;13.72;8.28;;;;;;;-5.18;69.93;101597.52;1771270;80;21341;-54
2022/01/12 00:55:06;;;;;;;13.38;8.08;;;;;;;-5.21;70.01;101596.28;1771139;80;21236;-55
2022/01/12 00:58:13;;;;;;;13.03;7.17;;;;;;;-5.14;70.16;101606.30;1771035;81;21232;-54
2022/01/12 01:01:18;;;;;;;14.30;7.70;;;;;;;-5.13;69.67;101594.24;1735440;82;21267;-54
2022/01/12 01:04:25;;;;;;;10.60;6.22;;;;;;;-5.16;69.53;101602.35;1770766;80;21193;-55
2022/01/12 01:07:38;;;;;;;13.40;7.10;;;;;;;-5.15;69.41;101599.20;1770702;80;21241;-54
2022/01/12 01:10:47;;;;;;;11.93;7.72;;;;;;;-5.22;69.06;101596.33;1714341;82;21394;-55
2022/01/12 01:14:00;;;;;;;11.53;7.15;;;;;;;-5.27;69.16;101599.14;1770819;80;21217;-54
2022/01/12 01:27:22;;;;;;;12.35;7.15;;;;;;;-5.22;69.52;101608.33;1755203;80;21351;-55
2022/01/12 01:30:27;;;;;;;11.35;7.25;;;;;;;-5.12;69.47;101609.33;1703101;83;21208;-55
2022/01/12 01:33:33;;;;;;;11.00;7.17;;;;;;;-5.09;69.25;101611.89;1748192;81;21731;-55
2022/01/12 01:36:50;;;;;;;12.43;7.05;;;;;;;-5.08;68.98;101607.44;1737175;81;21930;-56
2022/01/12 01:39:56;;;;;;;10.68;7.12;;;;;;;-5.13;68.74;101621.38;1702729;84;21275;-55
2022/01/12 01:53:21;;;;;;;8.53;5.47;;;;;;;-4.96;68.30;101612.38;1735005;82;21933;-55
2022/01/12 01:56:26;;;;;;;11.63;7.65;;;;;;;-5.08;67.62;101623.00;1737283;82;21375;-55
2022/01/12 01:59:35;;;;;;;12.80;7.45;;;;;;;-5.15;67.62;101616.09;1735977;82;21369;-55
2022/01/12 02:02:47;;;;;;;12.88;7.35;;;;;;;-5.15;67.65;101618.77;1736508;82;21824;-55
2022/01/12 02:05:54;;;;;;;11.48;6.92;;;;;;;-5.07;67.74;101625.19;1735722;82;21648;-56
2022/01/12 02:09:01;;;;;;;15.18;8.40;;;;;;;-5.05;67.59;101622.91;1736345;82;21353;-55
2022/01/12 02:12:09;;;;;;;23.52;10.93;;;;;;;-5.06;67.65;101618.95;1702463;84;21216;-54
2022/01/12 02:15:28;;;;;;;21.15;11.10;;;;;;;-5.10;68.02;101618.16;1739311;81;21604;-55
2022/01/12 02:19:03;;;;;;;20.00;12.33;;;;;;;-5.12;68.47;101624.00;1742471;81;21522;-55
2022/01/12 02:35:46;;;;;;;15.70;10.18;;;;;;;-5.26;69.70;101638.23;1740724;81;21278;-55
2022/01/12 02:42:03;;;;;;;13.55;8.48;;;;;;;-5.23;69.71;101646.14;1736044;82;21250;-55
2022/01/12 02:55:24;;;;;;;20.17;10.30;;;;;;;-5.26;69.53;101646.23;1751142;81;21424;-54
2022/01/12 02:58:29;;;;;;;13.90;7.72;;;;;;;-5.19;69.58;101647.81;1736145;82;21334;-55
2022/01/12 03:02:03;;;;;;;12.25;6.78;;;;;;;-5.14;69.40;101644.55;1733878;81;21258;-54
2022/01/12 03:05:05;;;;;;;10.70;6.75;;;;;;;-5.22;68.28;101654.58;1702526;84;21173;-55
2022/01/12 03:07:58;;;;;;;9.78;6.30;;;;;;;-5.43;67.52;101656.54;1746585;81;21361;-55
2022/01/12 03:11:02;;;;;;;8.93;6.03;;;;;;;-5.55;67.60;101655.54;1692392;83;21189;-54
2022/01/12 03:14:12;;;;;;;9.48;5.53;;;;;;;-5.53;67.59;101655.05;1733822;81;21373;-55
2022/01/12 03:17:19;;;;;;;8.60;6.25;;;;;;;-5.54;67.42;101658.64;1737106;81;21357;-56
2022/01/12 03:20:25;;;;;;;10.40;6.20;;;;;;;-5.52;67.31;101661.27;1703119;83;21276;-56
2022/01/12 03:23:33;;;;;;;11.63;6.17;;;;;;;-5.50;67.27;101658.95;1747493;81;22120;-54
2022/01/12 03:26:38;;;;;;;9.53;5.28;;;;;;;-5.47;66.99;101674.87;1750205;81;21357;-55
2022/01/12 03:29:54;;;;;;;11.08;4.95;;;;;;;-5.55;66.62;101660.87;1761797;81;21213;-53
2022/01/12 03:33:08;;;;;;;8.90;5.62;;;;;;;-5.59;66.91;101675.68;1770852;80;21178;-54
2022/01/12 04:08:23;;;;;;;7.72;4.97;;;;;;;-5.38;65.57;101654.62;1770717;81;21189;-55
2022/01/12 04:11:29;;;;;;;6.92;4.12;;;;;;;-5.33;65.50;101654.48;1770785;80;21208;-54
2022/01/12 04:14:35;;;;;;;9.25;5.42;;;;;;;-5.40;65.13;101649.78;1735251;82;21316;-55
2022/01/12 04:17:42;;;;;;;7.78;4.53;;;;;;;-5.57;65.34;101650.73;1771482;80;21352;-55
2022/01/12 04:20:50;;;;;;;8.65;4.75;;;;;;;-5.59;65.72;101651.23;1735721;82;21196;-55
2022/01/12 04:23:57;;;;;;;7.60;4.67;;;;;;;-5.60;65.97;101646.83;1771016;80;21217;-54
2022/01/12 04:27:02;;;;;;;7.95;5.00;;;;;;;-5.51;66.20;101651.88;1735991;82;21292;-54
2022/01/12 04:30:08;;;;;;;8.05;4.42;;;;;;;-5.47;66.41;101645.53;1723836;81;21267;-54
2022/01/12 04:33:15;;;;;;;8.63;4.72;;;;;;;-5.41;66.42;101645.83;1706551;83;21207;-54
2022/01/12 04:36:22;;;;;;;10.30;4.75;;;;;;;-5.31;66.44;101650.83;1720445;83;21374;-55
2022/01/12 04:39:28;;;;;;;8.33;4.97;;;;;;;-5.29;66.43;101642.33;1720159;83;21735;-55
2022/01/12 04:42:36;;;;;;;6.65;4.33;;;;;;;-5.26;66.37;101643.56;1719913;83;21308;-54
2022/01/12 04:45:56;;;;;;;9.08;4.62;;;;;;;-5.22;66.33;101651.91;1698369;84;21254;-54
2022/01/12 04:49:47;;;;;;;8.45;4.92;;;;;;;-5.26;66.23;101646.23;1727471;83;21910;-54
2022/01/12 04:52:03;;;;;;;7.08;4.87;;;;;;;-5.30;66.40;101642.38;1726486;83;21416;-55
2022/01/12 04:55:09;;;;;;;11.18;4.53;;;;;;;-5.28;66.67;101642.73;1727374;83;21453;-56
2022/01/12 04:58:15;;;;;;;7.53;4.87;;;;;;;-5.29;66.64;101634.33;1727012;83;21381;-55
2022/01/12 05:01:24;;;;;;;8.43;5.00;;;;;;;-5.32;67.14;101646.42;1707063;83;21413;-54
2022/01/12 05:08:12;;;;;;;8.08;5.12;;;;;;;-5.32;67.46;101653.09;1726892;83;21373;-54
2022/01/12 05:14:39;;;;;;;8.05;5.30;;;;;;;-5.37;67.24;101649.69;1726259;83;21421;-55
2022/01/12 05:17:44;;;;;;;9.63;5.58;;;;;;;-5.48;66.46;101652.24;1725955;83;21389;-56
2022/01/12 05:20:50;;;;;;;9.80;5.58;;;;;;;-5.46;66.62;101654.42;1727619;82;22239;-56
2022/01/12 05:23:55;;;;;;;8.48;4.90;;;;;;;-5.41;66.44;101651.16;1727499;83;21288;-56
2022/01/12 05:27:02;;;;;;;9.08;5.10;;;;;;;-5.45;66.41;101652.16;1727284;81;21371;-54
2022/01/12 05:30:08;;;;;;;8.98;5.10;;;;;;;-5.47;65.32;101656.68;1714353;80;21929;-54
2022/01/12 05:33:17;;;;;;;11.97;6.00;;;;;;;-5.51;64.46;101651.88;1690801;84;21726;-60
2022/01/12 05:36:24;;;;;;;9.93;5.85;;;;;;;-5.48;64.02;101654.91;1690759;83;21852;-55
2022/01/12 05:39:35;;;;;;;10.08;6.22;;;;;;;-5.48;63.72;101654.46;1690823;84;21288;-56
2022/01/12 05:42:43;;;;;;;14.05;7.80;;;;;;;-5.47;63.47;101658.02;1730838;82;21378;-55
2022/01/12 05:45:50;;;;;;;11.95;9.03;;;;;;;-5.45;63.58;101667.70;1763229;80;21221;-55
2022/01/12 05:52:20;;;;;;;9.05;6.40;;;;;;;-5.34;63.40;101670.94;1767712;80;21197;-54
2022/01/12 05:55:26;;;;;;;11.90;6.33;;;;;;;-5.30;63.42;101664.61;1758195;80;21198;-55
2022/01/12 05:58:31;;;;;;;8.55;5.65;;;;;;;-5.23;63.49;101679.98;1767876;81;21689;-55
2022/01/12 06:01:38;;;;;;;11.00;5.83;;;;;;;-5.26;63.02;101674.70;1759339;79;21267;-55
2022/01/12 06:04:44;;;;;;;12.23;6.80;;;;;;;-5.27;62.98;101679.19;1767814;79;21173;-55
2022/01/12 06:07:55;;;;;;;11.22;5.85;;;;;;;-5.35;62.70;101678.98;1757358;81;21782;-55
2022/01/12 06:11:00;;;;;;;9.05;5.95;;;;;;;-5.45;62.69;101671.70;1764932;80;21213;-54
2022/01/12 06:14:08;;;;;;;11.10;7.50;;;;;;;-5.56;62.77;101684.47;1766810;80;21739;-56
2022/01/12 06:17:13;;;;;;;10.90;5.65;;;;;;;-5.58;62.85;101687.64;1753103;80;21216;-54
2022/01/12 06:20:19;;;;;;;10.15;7.08;;;;;;;-5.52;62.79;101695.49;1744836;80;21704;-55
2022/01/12 06:23:28;;;;;;;10.55;5.87;;;;;;;-5.61;62.16;101685.06;1747309;80;21781;-54
2022/01/12 06:26:36;;;;;;;11.10;6.20;;;;;;;-5.73;61.68;101691.19;1767610;79;21753;-55
2022/01/12 06:29:50;;;;;;;9.13;5.35;;;;;;;-5.91;61.48;101695.26;1768517;81;21188;-55
2022/01/12 06:32:49;;;;;;;9.70;6.03;;;;;;;-6.04;61.84;101687.16;1765649;80;21613;-54
2022/01/12 06:35:58;;;;;;;11.25;5.95;;;;;;;-6.11;62.29;101685.59;1771130;80;21185;-56
2022/01/12 06:39:03;;;;;;;9.53;5.45;;;;;;;-6.11;62.43;101690.03;1769265;80;21169;-55
2022/01/12 06:42:10;;;;;;;12.37;8.75;;;;;;;-6.11;62.48;101691.37;1769415;80;21212;-54
2022/01/12 06:45:17;;;;;;;13.05;7.50;;;;;;;-6.11;62.44;101693.59;1770375;79;21251;-54
2022/01/12 06:48:25;;;;;;;10.40;6.17;;;;;;;-6.15;62.38;101697.23;1770250;80;21228;-54
2022/01/12 06:51:31;;;;;;;10.55;5.83;;;;;;;-6.20;62.24;101690.69;1770205;79;21259;-55
2022/01/12 06:54:43;;;;;;;10.10;5.55;;;;;;;-6.22;62.34;101698.31;1770765;80;21192;-55
2022/01/12 06:57:52;;;;;;;12.57;6.43;;;;;;;-6.31;63.45;101696.75;1747500;80;21371;-56
2022/01/12 07:01:08;;;;;;;10.90;6.42;;;;;;;-6.30;64.49;101693.63;1750512;80;22048;-56
2022/01/12 07:04:14;;;;;;;13.00;6.42;;;;;;;-6.16;64.21;101683.50;1771003;81;21359;-54
2022/01/12 07:07:22;;;;;;;9.25;5.45;;;;;;;-5.98;63.27;101680.81;1772347;79;21713;-57
2022/01/12 07:10:30;;;;;;;13.22;6.25;;;;;;;-5.93;62.32;101677.09;1773950;80;21328;-55
2022/01/12 07:13:37;;;;;;;8.85;5.40;;;;;;;-6.02;61.82;101681.83;1762076;80;21186;-55
2022/01/12 07:16:42;;;;;;;14.50;6.17;;;;;;;-5.97;62.00;101683.88;1740885;82;21721;-54
2022/01/12 07:19:47;;;;;;;13.90;6.80;;;;;;;-5.99;61.76;101681.27;1771487;80;21236;-56
2022/01/12 07:22:54;;;;;;;9.55;5.33;;;;;;;-6.02;62.07;101683.16;1771496;80;21707;-56
2022/01/12 07:26:01;;;;;;;7.03;5.00;;;;;;;-6.00;62.23;101687.52;1742200;81;21207;-54
2022/01/12 07:29:11;;;;;;;9.03;5.22;;;;;;;-6.03;62.38;101678.27;1764171;81;21165;-56
2022/01/12 07:32:23;;;;;;;12.03;5.90;;;;;;;-6.06;62.53;101675.70;1769939;80;21177;-55
2022/01/12 07:35:27;;;;;;;8.23;5.47;;;;;;;-6.00;62.92;101684.85;1746859;80;21209;-55
2022/01/12 07:38:35;;;;;;;10.35;6.47;;;;;;;-5.94;63.01;101675.36;1769384;80;21392;-57
2022/01/12 07:41:43;;;;;;;9.90;5.83;;;;;;;-5.95;63.15;101677.62;1722620;82;21224;-55
2022/01/12 07:44:58;;;;;;;10.50;6.28;;;;;;;-5.88;63.55;101685.84;1741023;82;21963;-56
2022/01/12 07:47:59;;;;;;;8.58;5.53;;;;;;;-5.77;63.78;101681.06;1765265;81;21204;-56
2022/01/12 07:51:04;;;;;;;11.28;6.50;;;;;;;-5.68;63.74;101683.50;1733244;82;21200;-55
2022/01/12 07:54:14;;;;;;;11.10;6.92;;;;;;;-5.62;63.14;101685.98;1771745;81;21347;-55
2022/01/12 07:57:22;;;;;;;12.65;6.90;;;;;;;-5.62;62.35;101691.77;1771965;80;21217;-55
2022/01/12 08:00:27;;;;;;;12.00;6.72;;;;;;;-5.75;61.71;101687.23;1771032;80;21367;-57
2022/01/12 08:03:37;;;;;;;10.98;6.15;;;;;;;-5.70;61.94;101686.66;1732159;82;21219;-56
2022/01/12 08:06:44;;;;;;;10.70;6.22;;;;;;;-5.52;61.58;101682.16;1764560;81;21330;-54
2022/01/12 08:09:54;;;;;;;9.10;5.70;;;;;;;-5.48;60.78;101679.80;1766151;81;21320;-57
2022/01/12 08:12:59;;;;;;;12.68;6.70;;;;;;;-5.48;60.16;101690.47;1770932;80;21197;-55
2022/01/12 08:16:05;;;;;;;7.47;5.08;;;;;;;-5.44;59.81;101697.94;1769784;80;21181;-55
2022/01/12 08:19:12;;;;;;;10.03;5.85;;;;;;;-5.51;58.97;101693.23;1728034;81;21184;-54
2022/01/12 08:22:16;;;;;;;13.35;7.10;;;;;;;-5.48;59.17;101694.47;1760565;80;21170;-55
2022/01/12 08:25:28;;;;;;;10.93;6.97;;;;;;;-5.43;58.83;101690.34;1748428;80;21220;-55
2022/01/12 08:28:33;;;;;;;10.50;5.95;;;;;;;-5.49;58.73;101684.73;1754416;81;21197;-55
2022/01/12 08:31:39;;;;;;;13.83;7.00;;;;;;;-5.51;59.07;101688.34;1740782;81;21359;-55
2022/01/12 08:34:45;;;;;;;12.70;7.15;;;;;;;-5.51;59.88;101699.02;1767703;79;21209;-54
2022/01/12 08:37:55;;;;;;;14.30;8.58;;;;;;;-5.58;60.53;101704.13;1769114;80;21185;-55
2022/01/12 08:41:06;;;;;;;14.87;8.98;;;;;;;-5.65;60.67;101698.08;1749953;80;21742;-56
2022/01/12 08:44:12;;;;;;;21.02;8.63;;;;;;;-5.72;63.25;101706.30;1739139;82;21198;-56
2022/01/12 08:47:18;;;;;;;9.70;6.20;;;;;;;-5.68;64.77;101709.28;1765362;80;21244;-55
2022/01/12 08:50:25;;;;;;;10.95;6.85;;;;;;;-5.66;64.56;101708.79;1762805;79;21173;-56
2022/01/12 08:53:31;;;;;;;11.25;6.15;;;;;;;-5.75;64.06;101707.23;1756780;81;21379;-55
2022/01/12 08:56:37;;;;;;;9.00;5.50;;;;;;;-5.77;64.01;101706.39;1758515;79;21924;-56
2022/01/12 08:59:44;;;;;;;14.00;6.17;;;;;;;-5.80;63.25;101706.48;1768973;81;21857;-56
2022/01/12 09:02:50;;;;;;;13.28;7.25;;;;;;;-5.88;61.97;101700.51;1757632;80;21347;-53
2022/01/12 09:05:57;;;;;;;13.48;6.97;;;;;;;-6.05;61.30;101700.08;1737454;81;21200;-55
2022/01/12 09:09:03;;;;;;;9.25;6.12;;;;;;;-5.98;61.49;101692.36;1741297;82;21355;-56
2022/01/12 09:12:08;;;;;;;12.07;5.90;;;;;;;-5.73;61.53;101686.74;1740475;81;21233;-54
2022/01/12 09:15:16;;;;;;;10.25;6.00;;;;;;;-5.49;60.58;101713.19;1740335;82;21228;-55
2022/01/12 09:18:22;;;;;;;10.85;5.58;;;;;;;-5.55;59.47;101704.03;1739270;82;21458;-55
2022/01/12 09:21:29;;;;;;;11.05;6.42;;;;;;;-5.54;58.41;101698.66;1770410;79;21209;-55
2022/01/12 09:42:26;;;;;;;11.28;6.58;;;;;;;-5.32;54.38;101699.79;1769805;79;28948;-55
2022/01/12 09:45:35;;;;;;;11.57;6.83;;;;;;;-5.43;54.39;101700.55;1702355;82;21316;-56
2022/01/12 09:48:43;;;;;;;11.85;6.30;;;;;;;-5.67;53.72;101704.34;1677455;84;21716;-56
2022/01/12 09:51:50;;;;;;;12.68;7.85;;;;;;;-5.87;53.69;101696.06;1681826;82;21241;-55
2022/01/12 09:54:56;;;;;;;14.30;7.22;;;;;;;-6.00;53.93;101705.29;1699646;82;21253;-56
2022/01/12 09:58:03;;;;;;;9.60;6.40;;;;;;;-6.04;53.95;101702.30;1699391;84;21717;-54
2022/01/12 10:01:09;;;;;;;11.75;7.05;;;;;;;-5.98;53.70;101700.36;1695677;83;21246;-56
2022/01/12 10:04:23;;;;;;;19.15;8.85;;;;;;;-5.95;53.43;101697.61;1662048;85;21242;-55
2022/01/12 10:07:29;;;;;;;18.57;10.30;;;;;;;-5.98;52.96;101683.48;1691387;84;21761;-55
2022/01/12 10:10:34;;;;;;;16.80;8.40;;;;;;;-6.07;52.78;101671.73;1672294;84;21239;-55
2022/01/12 10:13:42;;;;;;;14.68;7.12;;;;;;;-6.13;53.45;101693.19;1690209;84;21202;-54
2022/01/12 10:16:59;;;;;;;15.98;8.28;;;;;;;-6.17;53.84;101694.60;1727120;80;21232;-55
2022/01/12 10:20:27;;;;;;;14.47;7.37;;;;;;;-6.23;54.43;101699.20;1700403;83;21261;-54
2022/01/12 10:23:40;;;;;;;13.03;7.00;;;;;;;-6.22;54.37;101688.98;1713364;83;21780;-56
2022/01/12 10:26:51;;;;;;;11.68;6.70;;;;;;;-6.12;54.39;101675.86;1706180;84;21268;-56
2022/01/12 10:30:07;;;;;;;15.63;7.83;;;;;;;-5.89;54.45;101672.11;1707488;83;21758;-55
2022/01/12 10:33:24;;;;;;;10.25;6.20;;;;;;;-5.75;53.94;101685.91;1698161;83;21209;-55
2022/01/12 10:36:31;;;;;;;13.93;6.12;;;;;;;-5.75;53.05;101669.91;1657027;86;21337;-56
2022/01/12 10:39:40;;;;;;;13.58;6.72;;;;;;;-5.75;53.04;101678.35;1663847;86;21210;-57
2022/01/12 10:42:49;;;;;;;13.38;6.72;;;;;;;-5.67;53.18;101672.35;1667251;82;21218;-56
2022/01/12 10:45:57;;;;;;;13.28;6.83;;;;;;;-5.61;52.94;101678.39;1665181;85;21388;-55
2022/01/12 10:49:04;;;;;;;12.70;6.80;;;;;;;-5.72;52.80;101675.15;1665193;86;21692;-56
2022/01/12 10:52:14;;;;;;;13.88;7.00;;;;;;;-5.93;52.75;101677.09;1675641;83;21229;-55
2022/01/12 10:55:20;;;;;;;13.78;7.20;;;;;;;-6.14;53.11;101680.34;1640888;85;21249;-55
2022/01/12 10:58:32;;;;;;;10.95;7.25;;;;;;;-6.27;53.53;101666.91;1713673;83;21359;-55
2022/01/12 11:01:38;;;;;;;12.50;6.78;;;;;;;-6.23;53.81;101667.23;1666854;85;21493;-55
2022/01/12 11:04:44;;;;;;;17.73;7.58;;;;;;;-6.10;54.01;101669.16;1689314;83;21289;-56
2022/01/12 11:07:54;;;;;;;14.13;8.30;;;;;;;-6.13;53.66;101665.21;1682070;84;21268;-54
2022/01/12 11:11:04;;;;;;;12.03;6.83;;;;;;;-6.14;53.50;101665.69;1699231;82;21245;-55
2022/01/12 11:14:11;;;;;;;12.00;6.70;;;;;;;-6.17;53.35;101665.30;1690093;83;21748;-54
2022/01/12 11:17:17;;;;;;;12.25;6.37;;;;;;;-6.11;53.36;101660.73;1714794;82;21196;-55
2022/01/12 11:20:36;;;;;;;12.50;7.08;;;;;;;-6.10;53.05;101669.16;1715071;81;21778;-55
2022/01/12 11:23:47;;;;;;;13.03;6.60;;;;;;;-6.13;52.93;101643.45;1703767;82;21598;-55
2022/01/12 11:27:03;;;;;;;11.38;6.72;;;;;;;-6.11;53.33;101660.73;1669188;84;21747;-55
2022/01/12 11:30:05;;;;;;;;;;;;;;;-5.88;53.42;101636.53;1668743;84;21299;-55
2022/01/12 11:33:13;;;;;;;11.40;6.17;;;;;;;-5.70;53.56;101634.66;1665916;84;20219;-54
2022/01/12 11:36:44;;;;;;;12.35;7.37;;;;;;;-5.47;53.38;101646.02;1658671;84;21842;-58
2022/01/12 11:39:51;;;;;;;12.55;6.20;;;;;;;-5.44;53.27;101630.77;1637611;86;21230;-55
2022/01/12 11:43:07;;;;;;;14.30;7.40;;;;;;;-5.33;53.20;101625.12;1647438;85;21378;-55
2022/01/12 11:46:26;;;;;;;15.70;8.55;;;;;;;-5.32;53.29;101651.77;1664482;84;21354;-55
2022/01/12 11:49:53;;;;;;;17.57;8.88;;;;;;;-5.38;53.24;101626.61;1663124;86;21388;-55
2022/01/12 11:53:05;;;;;;;11.48;6.80;;;;;;;-5.43;53.38;101633.87;1663203;86;21411;-54
2022/01/12 11:56:26;;;;;;;11.15;7.17;;;;;;;-5.58;53.55;101622.30;1642228;86;21233;-54
2022/01/12 11:59:36;;;;;;;13.98;8.25;;;;;;;-5.80;53.84;101619.83;1662169;86;21202;-55
2022/01/12 12:02:51;;;;;;;10.70;5.87;;;;;;;-5.92;54.63;101625.55;1661285;86;21210;-57
2022/01/12 12:06:01;;;;;;;13.93;7.87;;;;;;;-5.94;54.75;101643.81;1660862;85;21273;-55
2022/01/12 12:09:18;;;;;;;15.28;7.87;;;;;;;-6.27;54.88;101621.18;1666955;84;21190;-54
2022/01/12 12:12:32;;;;;;;11.55;6.22;;;;;;;-6.44;55.58;101624.72;1689265;84;21197;-56
2022/01/12 12:15:40;;;;;;;12.33;6.77;;;;;;;-6.60;55.75;101623.38;1688080;84;21245;-54
2022/01/12 12:18:49;;;;;;;16.80;8.53;;;;;;;-6.71;56.17;101632.54;1686735;85;21349;-56
2022/01/12 12:21:59;;;;;;;14.95;8.05;;;;;;;-6.76;56.41;101627.33;1680723;85;21249;-55
2022/01/12 12:25:08;;;;;;;15.30;8.60;;;;;;;-6.81;56.57;101628.34;1687822;85;21235;-54
2022/01/12 12:28:15;;;;;;;14.03;7.50;;;;;;;-6.86;56.60;101632.89;1690220;82;21204;-55
2022/01/12 12:31:32;;;;;;;12.23;6.92;;;;;;;-6.85;56.47;101625.35;1673133;85;21765;-56
2022/01/12 12:34:40;;;;;;;14.03;7.12;;;;;;;-6.82;56.33;101637.25;1656784;86;21235;-55
2022/01/12 12:37:48;;;;;;;14.25;7.35;;;;;;;-6.89;55.77;101644.50;1643137;86;21290;-57
2022/01/12 12:40:57;;;;;;;14.78;8.10;;;;;;;-7.01;55.75;101646.57;1712884;82;21808;-57
2022/01/12 12:44:06;;;;;;;14.00;7.50;;;;;;;-7.08;55.99;101643.62;1711366;81;21614;-56
2022/01/12 12:47:19;;;;;;;10.90;6.95;;;;;;;-7.02;56.22;101642.14;1704782;83;21209;-56
2022/01/12 12:50:29;;;;;;;13.62;6.90;;;;;;;-7.03;56.16;101645.72;1702661;83;21232;-57
2022/01/12 12:53:40;;;;;;;11.15;6.25;;;;;;;-7.18;56.22;101655.39;1663546;86;22064;-56
2022/01/12 12:56:59;;;;;;;15.08;6.83;;;;;;;-7.27;56.36;101651.59;1665320;85;21262;-54
2022/01/12 13:00:25;;;;;;;12.43;6.60;;;;;;;-7.37;56.49;101666.02;1663018;86;21244;-56
2022/01/12 13:03:32;;;;;;;10.85;6.62;;;;;;;-7.43;56.80;101658.14;1664000;86;21377;-54
2022/01/12 13:06:44;;;;;;;12.07;6.97;;;;;;;-7.47;57.02;101659.12;1658517;85;21260;-54
2022/01/12 13:09:53;;;;;;;13.18;6.85;;;;;;;-7.54;57.25;101658.82;1643493;85;21280;-54
2022/01/12 13:13:07;;;;;;;13.45;7.12;;;;;;;-7.52;57.43;101662.33;1662536;84;21242;-56
2022/01/12 13:16:13;;;;;;;17.67;7.47;;;;;;;-7.47;57.61;101661.78;1665469;84;21230;-55
2022/01/12 13:19:33;;;;;;;14.80;6.87;;;;;;;-7.37;57.65;101662.02;1663834;84;21239;-55
2022/01/12 13:22:41;;;;;;;13.40;7.00;;;;;;;-7.30;57.68;101662.30;1664012;84;21799;-56
2022/01/12 13:25:56;;;;;;;14.45;7.60;;;;;;;-7.28;57.48;101670.68;1646898;85;21815;-55
2022/01/12 13:29:02;;;;;;;11.05;6.78;;;;;;;-7.32;57.39;101666.77;1659174;86;21255;-55
2022/01/12 13:32:18;;;;;;;22.13;10.20;;;;;;;-7.33;57.49;101674.33;1663284;84;21330;-55
2022/01/12 13:35:25;;;;;;;19.17;9.53;;;;;;;-7.40;57.27;101663.42;1663915;85;22076;-56
2022/01/12 13:38:36;;;;;;;18.32;9.40;;;;;;;-7.46;57.43;101669.73;1662942;86;21577;-55
2022/01/12 13:41:51;;;;;;;16.32;8.48;;;;;;;-7.40;57.74;101669.59;1662916;86;21327;-55
2022/01/12 13:44:58;;;;;;;15.75;8.63;;;;;;;-7.32;57.47;101674.30;1664065;84;21775;-56
2022/01/12 13:48:12;;;;;;;15.75;8.43;;;;;;;-7.31;57.34;101669.86;1659884;85;21227;-56
2022/01/12 13:51:12;;;;;;;19.48;11.12;;;;;;;-7.34;56.76;101673.45;1673999;84;21242;-55
2022/01/12 13:54:19;;;;;;;20.95;9.73;;;;;;;-7.50;56.59;101667.17;1671992;85;21247;-54
2022/01/12 13:57:27;;;;;;;18.90;9.98;;;;;;;-7.58;56.82;101677.08;1662517;86;21270;-55
2022/01/12 14:00:32;;;;;;;20.35;10.13;;;;;;;-7.70;56.71;101677.34;1640737;85;21826;-54
2022/01/12 14:03:37;;;;;;;23.15;11.25;;;;;;;-7.91;56.78;101678.59;1662706;86;21778;-55
2022/01/12 14:07:00;;;;;;;21.42;11.03;;;;;;;-8.09;57.13;101670.99;1668172;85;21245;-56
2022/01/12 14:10:08;;;;;;;22.10;11.12;;;;;;;-8.10;57.55;101679.84;1674694;85;21719;-55
2022/01/12 14:13:13;;;;;;;22.35;11.68;;;;;;;-8.07;57.77;101685.98;1675158;85;21881;-56
2022/01/12 14:16:22;;;;;;;21.27;11.53;;;;;;;-8.11;57.85;101675.45;1675048;84;21207;-55
2022/01/12 14:19:31;;;;;;;20.95;11.10;;;;;;;-8.12;57.95;101681.20;1673731;85;21253;-56
2022/01/12 14:22:35;;;;;;;27.15;12.37;;;;;;;-8.14;58.14;101681.70;1665978;85;21258;-56
2022/01/12 14:25:57;;;;;;;20.68;10.30;;;;;;;-8.11;58.23;101678.11;1651366;84;21230;-55
2022/01/12 14:29:09;;;;;;;29.75;12.90;;;;;;;-8.11;58.15;101677.66;1674646;85;21237;-55
2022/01/12 14:32:16;;;;;;;20.45;9.90;;;;;;;-8.19;58.04;101686.66;1706702;82;21828;-56
2022/01/12 14:35:26;;;;;;;24.45;12.30;;;;;;;-8.25;58.14;101688.13;1694231;84;21598;-54
2022/01/12 14:38:31;;;;;;;27.85;13.13;;;;;;;-8.36;58.18;101691.42;1704630;84;21205;-55
2022/01/12 14:41:38;;;;;;;26.27;11.97;;;;;;;-8.43;58.32;101680.47;1706732;82;21264;-56
2022/01/12 14:44:42;;;;;;;20.40;11.10;;;;;;;-8.44;58.46;101688.02;1705887;83;21277;-55
2022/01/12 14:47:47;;;;;;;27.35;11.30;;;;;;;-8.40;58.60;101686.61;1715930;83;21318;-55
2022/01/12 14:50:53;;;;;;;18.90;10.65;;;;;;;-8.37;58.61;101689.21;1689483;85;21770;-55
2022/01/12 14:53:58;;;;;;;17.57;10.43;;;;;;;-8.31;58.65;101682.46;1689429;85;21346;-55
2022/01/12 14:57:03;;;;;;;16.90;9.60;;;;;;;-8.26;58.52;101687.72;1689086;83;21626;-55
2022/01/12 15:00:20;;;;;;;17.57;10.50;;;;;;;-8.17;58.75;101696.81;1689130;83;21312;-57
2022/01/12 15:03:26;;;;;;;;;;;;;;;-8.12;58.58;101693.63;1674959;84;21649;-55
2022/01/12 15:06:28;;;;;;;19.25;9.05;;;;;;;-8.14;58.54;101698.08;1688251;83;20464;-55
2022/01/12 15:09:34;;;;;;;12.23;6.85;;;;;;;-8.22;58.70;101695.57;1687352;83;21285;-55
2022/01/12 15:12:41;;;;;;;13.20;7.30;;;;;;;-8.19;58.90;101696.84;1687126;85;22229;-57
2022/01/12 15:15:50;;;;;;;14.83;8.68;;;;;;;-8.21;58.86;101703.95;1688860;84;21241;-56
2022/01/12 15:18:59;;;;;;;15.85;8.85;;;;;;;-8.23;59.03;101701.80;1661808;86;21721;-55
2022/01/12 15:22:04;;;;;;;13.53;7.78;;;;;;;-8.18;59.04;101695.92;1668329;83;21226;-55
2022/01/12 15:25:12;;;;;;;13.98;7.80;;;;;;;-8.13;59.24;101706.46;1696678;82;21278;-55
2022/01/12 15:28:21;;;;;;;16.27;8.53;;;;;;;-8.06;59.24;101699.70;1662035;86;21738;-54
2022/01/12 15:31:28;;;;;;;14.38;8.63;;;;;;;-8.01;59.19;101688.52;1678040;85;21631;-55
2022/01/12 15:34:35;;;;;;;15.00;8.03;;;;;;;-8.04;59.26;101692.56;1688984;85;21584;-56
2022/01/12 15:37:44;;;;;;;13.40;6.97;;;;;;;-7.98;59.38;101701.78;1679996;85;21237;-56
2022/01/12 15:40:50;;;;;;;11.63;6.78;;;;;;;-7.96;58.98;101702.59;1688820;85;21528;-57
2022/01/12 15:43:57;;;;;;;11.60;6.65;;;;;;;-8.05;58.86;101701.45;1689279;85;21265;-55
2022/01/12 15:47:02;;;;;;;16.45;8.08;;;;;;;-8.10;58.85;101703.30;1684331;83;21314;-55
2022/01/12 15:50:08;;;;;;;11.40;6.33;;;;;;;-8.21;58.97;101695.09;1675003;84;21388;-55
2022/01/12 15:53:15;;;;;;;12.23;6.85;;;;;;;-8.18;59.31;101709.20;1648841;87;21870;-55
2022/01/12 15:56:21;;;;;;;11.30;6.85;;;;;;;-8.17;59.44;101701.68;1663534;84;21238;-56
2022/01/12 15:59:26;;;;;;;13.68;7.87;;;;;;;-8.14;59.61;101707.38;1670160;85;21433;-55
2022/01/12 16:02:32;;;;;;;16.02;7.92;;;;;;;-8.12;59.65;101710.42;1684375;84;21234;-55
2022/01/12 16:05:38;;;;;;;13.20;7.72;;;;;;;-8.07;59.79;101723.17;1679506;84;21236;-55
2022/01/12 16:08:43;;;;;;;12.73;8.15;;;;;;;-8.06;59.58;101720.95;1703399;84;21248;-55
2022/01/12 16:11:50;;;;;;;19.30;7.75;;;;;;;-8.11;59.63;101721.48;1702072;83;21233;-56
2022/01/12 16:14:56;;;;;;;17.85;8.63;;;;;;;-8.12;59.85;101723.70;1701942;83;21204;-55
2022/01/12 16:18:04;;;;;;;16.07;8.20;;;;;;;-8.05;60.12;101721.37;1702826;84;21235;-55
2022/01/12 16:21:12;;;;;;;15.83;8.43;;;;;;;-8.02;59.99;101721.31;1702585;83;21236;-55